sensor_id;sensor_type;location;lat;lon;timestamp;temperature;humidity
46440;DHT22;32138;50.966;6.968;2023-04-29T00:00:06;14.50;99.90
46440;DHT22;32138;50.966;6.968;2023-04-29T00:01:08;14.50;99.90
46440;DHT22;32138;50.966;6.968;2023-04-29T00:02:09;14.50;99.90
46440;DHT22;32138;50.966;6.968;2023-04-29T00:03:10;14.50;99.90
46440;DHT22;32138;50.966;6.968;2023-04-29T00:04:11;14.50;99.90
46440;DHT22;32138;50.966;6.968;2023-04-29T00:05:13;14.50;99.90
46440;DHT22;32138;50.966;6.968;2023-04-29T00:06:14;14.50;99.90
46440;DHT22;32138;50.966;6.968;2023-04-29T00:07:15;14.50;99.90
46440;DHT22;32138;50.966;6.968;2023-04-29T00:08:15;14.40;99.90
46440;DHT22;32138;50.966;6.968;2023-04-29T00:09:16;14.40;99.90
46440;DHT22;32138;50.966;6.968;2023-04-29T00:10:17;14.50;99.90
46440;DHT22;32138;50.966;6.968;2023-04-29T00:11:18;14.50;99.90
46440;DHT22;32138;50.966;6.968;2023-04-29T00:12:18;14.40;99.90
46440;DHT22;32138;50.966;6.968;2023-04-29T00:13:19;14.40;99.90
46440;DHT22;32138;50.966;6.968;2023-04-29T00:14:20;14.40;99.90
46440;DHT22;32138;50.966;6.968;2023-04-29T00:15:21;14.40;99.90
46440;DHT22;32138;50.966;6.968;2023-04-29T00:16:22;14.40;99.90
46440;DHT22;32138;50.966;6.968;2023-04-29T00:17:23;14.50;99.90
46440;DHT22;32138;50.966;6.968;2023-04-29T00:18:23;14.40;99.90
46440;DHT22;32138;50.966;6.968;2023-04-29T00:19:24;14.40;99.90
46440;DHT22;32138;50.966;6.968;2023-04-29T00:20:25;14.40;99.90
46440;DHT22;32138;50.966;6.968;2023-04-29T00:21:26;14.40;99.90
46440;DHT22;32138;50.966;6.968;2023-04-29T00:22:27;14.40;99.90
46440;DHT22;32138;50.966;6.968;2023-04-29T00:23:28;14.40;99.90
46440;DHT22;32138;50.966;6.968;2023-04-29T00:24:29;14.40;99.90
46440;DHT22;32138;50.966;6.968;2023-04-29T00:25:30;14.40;99.90
46440;DHT22;32138;50.966;6.968;2023-04-29T00:26:30;14.40;99.90
46440;DHT22;32138;50.966;6.968;2023-04-29T00:27:31;14.40;99.90
46440;DHT22;32138;50.966;6.968;2023-04-29T00:28:32;14.30;99.90
46440;DHT22;32138;50.966;6.968;2023-04-29T00:29:33;14.30;99.90
46440;DHT22;32138;50.966;6.968;2023-04-29T00:30:33;14.30;99.90
46440;DHT22;32138;50.966;6.968;2023-04-29T00:31:34;14.30;99.90
46440;DHT22;32138;50.966;6.968;2023-04-29T00:32:36;14.30;99.90
46440;DHT22;32138;50.966;6.968;2023-04-29T00:33:37;14.30;99.90
46440;DHT22;32138;50.966;6.968;2023-04-29T00:34:40;14.30;99.90
46440;DHT22;32138;50.966;6.968;2023-04-29T00:35:40;14.40;99.90
46440;DHT22;32138;50.966;6.968;2023-04-29T00:36:41;14.30;99.90
46440;DHT22;32138;50.966;6.968;2023-04-29T00:37:42;14.40;99.90
46440;DHT22;32138;50.966;6.968;2023-04-29T00:38:42;14.40;99.90
46440;DHT22;32138;50.966;6.968;2023-04-29T00:39:43;14.40;99.90
46440;DHT22;32138;50.966;6.968;2023-04-29T00:40:44;14.40;99.90
46440;DHT22;32138;50.966;6.968;2023-04-29T00:41:45;14.40;99.90
46440;DHT22;32138;50.966;6.968;2023-04-29T00:42:46;14.40;99.90
46440;DHT22;32138;50.966;6.968;2023-04-29T00:43:46;14.40;99.90
46440;DHT22;32138;50.966;6.968;2023-04-29T00:44:47;14.40;99.90
46440;DHT22;32138;50.966;6.968;2023-04-29T00:45:48;14.40;99.90
46440;DHT22;32138;50.966;6.968;2023-04-29T00:46:50;14.40;99.90
46440;DHT22;32138;50.966;6.968;2023-04-29T00:47:50;14.40;99.90
46440;DHT22;32138;50.966;6.968;2023-04-29T00:48:51;14.30;99.90
46440;DHT22;32138;50.966;6.968;2023-04-29T00:49:52;14.20;99.90
46440;DHT22;32138;50.966;6.968;2023-04-29T00:50:52;14.20;99.90
46440;DHT22;32138;50.966;6.968;2023-04-29T00:51:55;14.20;99.90
46440;DHT22;32138;50.966;6.968;2023-04-29T00:52:57;14.20;99.90
46440;DHT22;32138;50.966;6.968;2023-04-29T00:53:58;14.30;99.90
46440;DHT22;32138;50.966;6.968;2023-04-29T00:54:59;14.30;99.90
46440;DHT22;32138;50.966;6.968;2023-04-29T00:56:01;14.30;99.90
46440;DHT22;32138;50.966;6.968;2023-04-29T00:57:03;14.40;99.90
46440;DHT22;32138;50.966;6.968;2023-04-29T00:58:05;14.30;99.90
46440;DHT22;32138;50.966;6.968;2023-04-29T00:59:06;14.30;99.90
46440;DHT22;32138;50.966;6.968;2023-04-29T01:00:09;14.30;99.90
46440;DHT22;32138;50.966;6.968;2023-04-29T01:01:09;14.30;99.90
46440;DHT22;32138;50.966;6.968;2023-04-29T01:02:11;14.30;99.90
46440;DHT22;32138;50.966;6.968;2023-04-29T01:03:12;14.40;99.90
46440;DHT22;32138;50.966;6.968;2023-04-29T01:04:13;14.40;99.90
46440;DHT22;32138;50.966;6.968;2023-04-29T01:05:15;14.30;99.90
46440;DHT22;32138;50.966;6.968;2023-04-29T01:11:12;14.30;99.90
46440;DHT22;32138;50.966;6.968;2023-04-29T01:12:20;14.30;99.90
46440;DHT22;32138;50.966;6.968;2023-04-29T01:13:28;14.20;99.90
46440;DHT22;32138;50.966;6.968;2023-04-29T01:14:32;14.10;99.90
46440;DHT22;32138;50.966;6.968;2023-04-29T01:16:02;14.20;99.90
46440;DHT22;32138;50.966;6.968;2023-04-29T01:17:10;14.30;99.90
46440;DHT22;32138;50.966;6.968;2023-04-29T01:18:25;14.20;99.90
46440;DHT22;32138;50.966;6.968;2023-04-29T01:19:43;14.20;99.90
46440;DHT22;32138;50.966;6.968;2023-04-29T01:20:47;14.30;99.90
46440;DHT22;32138;50.966;6.968;2023-04-29T01:21:48;14.30;99.90
46440;DHT22;32138;50.966;6.968;2023-04-29T01:22:49;14.20;99.90
46440;DHT22;32138;50.966;6.968;2023-04-29T01:23:50;14.20;99.90
46440;DHT22;32138;50.966;6.968;2023-04-29T01:24:55;14.30;99.90
46440;DHT22;32138;50.966;6.968;2023-04-29T01:25:57;14.20;99.90
46440;DHT22;32138;50.966;6.968;2023-04-29T01:28:53;14.10;99.90
46440;DHT22;32138;50.966;6.968;2023-04-29T01:30:14;14.00;99.90
46440;DHT22;32138;50.966;6.968;2023-04-29T01:31:27;13.90;99.90
46440;DHT22;32138;50.966;6.968;2023-04-29T01:34:07;13.90;99.90
46440;DHT22;32138;50.966;6.968;2023-04-29T01:38:46;13.90;99.90
46440;DHT22;32138;50.966;6.968;2023-04-29T01:40:11;13.90;99.90
46440;DHT22;32138;50.966;6.968;2023-04-29T01:41:41;13.90;99.90
46440;DHT22;32138;50.966;6.968;2023-04-29T01:42:47;13.80;99.90
46440;DHT22;32138;50.966;6.968;2023-04-29T01:43:56;13.70;99.90
46440;DHT22;32138;50.966;6.968;2023-04-29T01:44:59;13.70;99.90
46440;DHT22;32138;50.966;6.968;2023-04-29T01:46:08;13.70;99.90
46440;DHT22;32138;50.966;6.968;2023-04-29T01:47:13;13.70;99.90
46440;DHT22;32138;50.966;6.968;2023-04-29T01:48:14;13.70;99.90
46440;DHT22;32138;50.966;6.968;2023-04-29T01:49:21;13.70;99.90
46440;DHT22;32138;50.966;6.968;2023-04-29T01:50:24;13.80;99.90
46440;DHT22;32138;50.966;6.968;2023-04-29T01:51:25;13.60;99.90
46440;DHT22;32138;50.966;6.968;2023-04-29T01:52:25;13.70;99.90
46440;DHT22;32138;50.966;6.968;2023-04-29T01:53:28;13.70;99.90
46440;DHT22;32138;50.966;6.968;2023-04-29T01:54:28;13.60;99.90
46440;DHT22;32138;50.966;6.968;2023-04-29T01:55:29;13.70;99.90
46440;DHT22;32138;50.966;6.968;2023-04-29T01:56:30;13.70;99.90
46440;DHT22;32138;50.966;6.968;2023-04-29T01:57:31;13.70;99.90
46440;DHT22;32138;50.966;6.968;2023-04-29T01:58:32;13.60;99.90
46440;DHT22;32138;50.966;6.968;2023-04-29T01:59:33;13.60;99.90
46440;DHT22;32138;50.966;6.968;2023-04-29T02:00:33;13.70;99.90
46440;DHT22;32138;50.966;6.968;2023-04-29T02:01:35;13.70;99.90
46440;DHT22;32138;50.966;6.968;2023-04-29T02:02:35;13.70;99.90
46440;DHT22;32138;50.966;6.968;2023-04-29T02:03:36;13.60;99.90
46440;DHT22;32138;50.966;6.968;2023-04-29T02:04:37;13.60;99.90
46440;DHT22;32138;50.966;6.968;2023-04-29T02:05:38;13.60;99.90
46440;DHT22;32138;50.966;6.968;2023-04-29T02:06:38;13.60;99.90
46440;DHT22;32138;50.966;6.968;2023-04-29T02:07:39;13.70;99.90
46440;DHT22;32138;50.966;6.968;2023-04-29T02:08:41;13.60;99.90
46440;DHT22;32138;50.966;6.968;2023-04-29T02:09:42;13.60;99.90
46440;DHT22;32138;50.966;6.968;2023-04-29T02:10:56;13.70;99.90
46440;DHT22;32138;50.966;6.968;2023-04-29T02:11:58;13.70;99.90
46440;DHT22;32138;50.966;6.968;2023-04-29T02:12:59;13.70;99.90
46440;DHT22;32138;50.966;6.968;2023-04-29T02:14:00;13.70;99.90
46440;DHT22;32138;50.966;6.968;2023-04-29T02:15:01;13.70;99.90
46440;DHT22;32138;50.966;6.968;2023-04-29T02:16:13;13.50;99.90
46440;DHT22;32138;50.966;6.968;2023-04-29T02:17:14;13.50;99.90
46440;DHT22;32138;50.966;6.968;2023-04-29T02:18:15;13.40;99.90
46440;DHT22;32138;50.966;6.968;2023-04-29T02:19:16;13.40;99.90
46440;DHT22;32138;50.966;6.968;2023-04-29T02:20:16;13.50;99.90
46440;DHT22;32138;50.966;6.968;2023-04-29T02:21:17;13.50;99.90
46440;DHT22;32138;50.966;6.968;2023-04-29T02:22:18;13.50;99.90
46440;DHT22;32138;50.966;6.968;2023-04-29T02:23:18;13.50;99.90
46440;DHT22;32138;50.966;6.968;2023-04-29T02:24:19;13.60;99.90
46440;DHT22;32138;50.966;6.968;2023-04-29T02:25:20;13.50;99.90
46440;DHT22;32138;50.966;6.968;2023-04-29T02:26:21;13.50;99.90
46440;DHT22;32138;50.966;6.968;2023-04-29T02:27:23;13.50;99.90
46440;DHT22;32138;50.966;6.968;2023-04-29T02:28:23;13.50;99.90
46440;DHT22;32138;50.966;6.968;2023-04-29T02:29:24;13.40;99.90
46440;DHT22;32138;50.966;6.968;2023-04-29T02:30:26;13.40;99.90
46440;DHT22;32138;50.966;6.968;2023-04-29T02:31:27;13.30;99.90
46440;DHT22;32138;50.966;6.968;2023-04-29T02:32:28;13.30;99.90
46440;DHT22;32138;50.966;6.968;2023-04-29T02:33:29;13.40;99.90
46440;DHT22;32138;50.966;6.968;2023-04-29T02:34:29;13.40;99.90
46440;DHT22;32138;50.966;6.968;2023-04-29T02:35:31;13.50;99.90
46440;DHT22;32138;50.966;6.968;2023-04-29T02:36:32;13.60;99.90
46440;DHT22;32138;50.966;6.968;2023-04-29T02:37:33;13.50;99.90
46440;DHT22;32138;50.966;6.968;2023-04-29T02:38:34;13.50;99.90
46440;DHT22;32138;50.966;6.968;2023-04-29T02:39:34;13.60;99.90
46440;DHT22;32138;50.966;6.968;2023-04-29T02:40:45;13.60;99.90
46440;DHT22;32138;50.966;6.968;2023-04-29T02:41:46;13.50;99.90
46440;DHT22;32138;50.966;6.968;2023-04-29T02:42:47;13.50;99.90
46440;DHT22;32138;50.966;6.968;2023-04-29T02:43:47;13.40;99.90
46440;DHT22;32138;50.966;6.968;2023-04-29T02:44:48;13.50;99.90
46440;DHT22;32138;50.966;6.968;2023-04-29T02:45:49;13.50;99.90
46440;DHT22;32138;50.966;6.968;2023-04-29T02:46:50;13.50;99.90
46440;DHT22;32138;50.966;6.968;2023-04-29T02:47:50;13.30;99.90
46440;DHT22;32138;50.966;6.968;2023-04-29T02:48:51;13.30;99.90
46440;DHT22;32138;50.966;6.968;2023-04-29T02:49:52;13.30;99.90
46440;DHT22;32138;50.966;6.968;2023-04-29T02:50:53;13.40;99.90
46440;DHT22;32138;50.966;6.968;2023-04-29T02:51:53;13.30;99.90
46440;DHT22;32138;50.966;6.968;2023-04-29T02:52:54;13.20;99.90
46440;DHT22;32138;50.966;6.968;2023-04-29T02:53:55;13.20;99.90
46440;DHT22;32138;50.966;6.968;2023-04-29T02:54:55;13.30;99.90
46440;DHT22;32138;50.966;6.968;2023-04-29T02:55:56;13.30;99.90
46440;DHT22;32138;50.966;6.968;2023-04-29T02:56:57;13.30;99.90
46440;DHT22;32138;50.966;6.968;2023-04-29T02:57:58;13.30;99.90
46440;DHT22;32138;50.966;6.968;2023-04-29T02:58:58;13.20;99.90
46440;DHT22;32138;50.966;6.968;2023-04-29T02:59:59;13.10;99.90
46440;DHT22;32138;50.966;6.968;2023-04-29T03:01:01;13.10;99.90
46440;DHT22;32138;50.966;6.968;2023-04-29T03:02:02;13.10;99.90
46440;DHT22;32138;50.966;6.968;2023-04-29T03:03:03;13.10;99.90
46440;DHT22;32138;50.966;6.968;2023-04-29T03:04:04;13.20;99.90
46440;DHT22;32138;50.966;6.968;2023-04-29T03:05:06;13.20;99.90
46440;DHT22;32138;50.966;6.968;2023-04-29T03:06:07;13.30;99.90
46440;DHT22;32138;50.966;6.968;2023-04-29T03:07:07;13.40;99.90
46440;DHT22;32138;50.966;6.968;2023-04-29T03:08:08;13.30;99.90
46440;DHT22;32138;50.966;6.968;2023-04-29T03:09:09;13.20;99.90
46440;DHT22;32138;50.966;6.968;2023-04-29T03:10:11;13.30;99.90
46440;DHT22;32138;50.966;6.968;2023-04-29T03:11:12;13.30;99.90
46440;DHT22;32138;50.966;6.968;2023-04-29T03:12:13;13.40;99.90
46440;DHT22;32138;50.966;6.968;2023-04-29T03:13:15;13.40;99.90
46440;DHT22;32138;50.966;6.968;2023-04-29T03:14:16;13.40;99.90
46440;DHT22;32138;50.966;6.968;2023-04-29T03:15:16;13.20;99.90
46440;DHT22;32138;50.966;6.968;2023-04-29T03:16:17;13.20;99.90
46440;DHT22;32138;50.966;6.968;2023-04-29T03:17:18;13.20;99.90
46440;DHT22;32138;50.966;6.968;2023-04-29T03:18:18;13.10;99.90
46440;DHT22;32138;50.966;6.968;2023-04-29T03:19:19;13.00;99.90
46440;DHT22;32138;50.966;6.968;2023-04-29T03:20:20;13.10;99.90
46440;DHT22;32138;50.966;6.968;2023-04-29T03:21:21;13.10;99.90
46440;DHT22;32138;50.966;6.968;2023-04-29T03:22:21;13.10;99.90
46440;DHT22;32138;50.966;6.968;2023-04-29T03:23:22;13.20;99.90
46440;DHT22;32138;50.966;6.968;2023-04-29T03:24:23;13.10;99.90
46440;DHT22;32138;50.966;6.968;2023-04-29T03:25:24;13.10;99.90
46440;DHT22;32138;50.966;6.968;2023-04-29T03:26:24;13.20;99.90
46440;DHT22;32138;50.966;6.968;2023-04-29T03:27:25;13.00;99.90
46440;DHT22;32138;50.966;6.968;2023-04-29T03:28:26;13.10;99.90
46440;DHT22;32138;50.966;6.968;2023-04-29T03:29:27;13.10;99.90
46440;DHT22;32138;50.966;6.968;2023-04-29T03:30:27;13.10;99.90
46440;DHT22;32138;50.966;6.968;2023-04-29T03:31:28;13.10;99.90
46440;DHT22;32138;50.966;6.968;2023-04-29T03:32:29;13.00;99.90
46440;DHT22;32138;50.966;6.968;2023-04-29T03:33:30;13.00;99.90
46440;DHT22;32138;50.966;6.968;2023-04-29T03:34:31;13.00;99.90
46440;DHT22;32138;50.966;6.968;2023-04-29T03:35:31;13.00;99.90
46440;DHT22;32138;50.966;6.968;2023-04-29T03:36:32;13.00;99.90
46440;DHT22;32138;50.966;6.968;2023-04-29T03:37:33;12.90;99.90
46440;DHT22;32138;50.966;6.968;2023-04-29T03:38:34;12.90;99.90
46440;DHT22;32138;50.966;6.968;2023-04-29T03:39:35;13.00;99.90
46440;DHT22;32138;50.966;6.968;2023-04-29T03:40:36;13.00;99.90
46440;DHT22;32138;50.966;6.968;2023-04-29T03:41:38;12.90;99.90
46440;DHT22;32138;50.966;6.968;2023-04-29T03:42:38;12.90;99.90
46440;DHT22;32138;50.966;6.968;2023-04-29T03:43:40;12.90;99.90
46440;DHT22;32138;50.966;6.968;2023-04-29T03:44:43;12.80;99.90
46440;DHT22;32138;50.966;6.968;2023-04-29T03:45:44;12.80;99.90
46440;DHT22;32138;50.966;6.968;2023-04-29T03:46:44;12.90;99.90
46440;DHT22;32138;50.966;6.968;2023-04-29T03:47:45;12.90;99.90
46440;DHT22;32138;50.966;6.968;2023-04-29T03:48:46;12.90;99.90
46440;DHT22;32138;50.966;6.968;2023-04-29T03:49:46;12.90;99.90
46440;DHT22;32138;50.966;6.968;2023-04-29T03:50:47;12.80;99.90
46440;DHT22;32138;50.966;6.968;2023-04-29T03:51:48;12.70;99.90
46440;DHT22;32138;50.966;6.968;2023-04-29T03:52:49;12.60;99.90
46440;DHT22;32138;50.966;6.968;2023-04-29T03:53:50;12.60;99.90
46440;DHT22;32138;50.966;6.968;2023-04-29T03:54:52;12.70;99.90
46440;DHT22;32138;50.966;6.968;2023-04-29T03:55:53;12.70;99.90
46440;DHT22;32138;50.966;6.968;2023-04-29T03:56:54;12.70;99.90
46440;DHT22;32138;50.966;6.968;2023-04-29T03:57:54;12.60;99.90
46440;DHT22;32138;50.966;6.968;2023-04-29T03:58:55;12.40;99.90
46440;DHT22;32138;50.966;6.968;2023-04-29T03:59:56;12.40;99.90
46440;DHT22;32138;50.966;6.968;2023-04-29T04:00:57;12.30;99.90
46440;DHT22;32138;50.966;6.968;2023-04-29T04:01:57;12.40;99.90
46440;DHT22;32138;50.966;6.968;2023-04-29T04:02:58;12.40;99.90
46440;DHT22;32138;50.966;6.968;2023-04-29T04:03:59;12.40;99.90
46440;DHT22;32138;50.966;6.968;2023-04-29T04:05:00;12.40;99.90
46440;DHT22;32138;50.966;6.968;2023-04-29T04:06:01;12.30;99.90
46440;DHT22;32138;50.966;6.968;2023-04-29T04:07:02;12.30;99.90
46440;DHT22;32138;50.966;6.968;2023-04-29T04:08:03;12.40;99.90
46440;DHT22;32138;50.966;6.968;2023-04-29T04:09:04;12.40;99.90
46440;DHT22;32138;50.966;6.968;2023-04-29T04:10:05;12.40;99.90
46440;DHT22;32138;50.966;6.968;2023-04-29T04:11:06;12.50;99.90
46440;DHT22;32138;50.966;6.968;2023-04-29T04:12:07;12.40;99.90
46440;DHT22;32138;50.966;6.968;2023-04-29T04:13:08;12.40;99.90
46440;DHT22;32138;50.966;6.968;2023-04-29T04:14:09;12.40;99.90
46440;DHT22;32138;50.966;6.968;2023-04-29T04:15:10;12.40;99.90
46440;DHT22;32138;50.966;6.968;2023-04-29T04:16:11;12.30;99.90
46440;DHT22;32138;50.966;6.968;2023-04-29T04:17:11;12.40;99.90
46440;DHT22;32138;50.966;6.968;2023-04-29T04:18:12;12.40;99.90
46440;DHT22;32138;50.966;6.968;2023-04-29T04:19:13;12.40;99.90
46440;DHT22;32138;50.966;6.968;2023-04-29T04:20:14;12.40;99.90
46440;DHT22;32138;50.966;6.968;2023-04-29T04:21:15;12.40;99.90
46440;DHT22;32138;50.966;6.968;2023-04-29T04:22:16;12.40;99.90
46440;DHT22;32138;50.966;6.968;2023-04-29T04:23:17;12.50;99.90
46440;DHT22;32138;50.966;6.968;2023-04-29T04:24:17;12.50;99.90
46440;DHT22;32138;50.966;6.968;2023-04-29T04:25:18;12.40;99.90
46440;DHT22;32138;50.966;6.968;2023-04-29T04:26:19;12.40;99.90
46440;DHT22;32138;50.966;6.968;2023-04-29T04:27:20;12.30;99.90
46440;DHT22;32138;50.966;6.968;2023-04-29T04:28:20;12.30;99.90
46440;DHT22;32138;50.966;6.968;2023-04-29T04:29:21;12.30;99.90
46440;DHT22;32138;50.966;6.968;2023-04-29T04:30:22;12.30;99.90
46440;DHT22;32138;50.966;6.968;2023-04-29T04:31:23;12.30;99.90
46440;DHT22;32138;50.966;6.968;2023-04-29T04:32:25;12.30;99.90
46440;DHT22;32138;50.966;6.968;2023-04-29T04:33:26;12.30;99.90
46440;DHT22;32138;50.966;6.968;2023-04-29T04:34:27;12.30;99.90
46440;DHT22;32138;50.966;6.968;2023-04-29T04:35:28;12.30;99.90
46440;DHT22;32138;50.966;6.968;2023-04-29T04:36:28;12.30;99.90
46440;DHT22;32138;50.966;6.968;2023-04-29T04:37:29;12.30;99.90
46440;DHT22;32138;50.966;6.968;2023-04-29T04:38:30;12.30;99.90
46440;DHT22;32138;50.966;6.968;2023-04-29T04:39:32;12.20;99.90
46440;DHT22;32138;50.966;6.968;2023-04-29T04:40:33;12.20;99.90
46440;DHT22;32138;50.966;6.968;2023-04-29T04:41:33;12.20;99.90
46440;DHT22;32138;50.966;6.968;2023-04-29T04:42:34;12.30;99.90
46440;DHT22;32138;50.966;6.968;2023-04-29T04:43:35;12.20;99.90
46440;DHT22;32138;50.966;6.968;2023-04-29T04:44:36;12.20;99.90
46440;DHT22;32138;50.966;6.968;2023-04-29T04:45:37;12.20;99.90
46440;DHT22;32138;50.966;6.968;2023-04-29T04:46:38;12.20;99.90
46440;DHT22;32138;50.966;6.968;2023-04-29T04:47:39;12.10;99.90
46440;DHT22;32138;50.966;6.968;2023-04-29T04:48:40;12.10;99.90
46440;DHT22;32138;50.966;6.968;2023-04-29T04:49:42;12.10;99.90
46440;DHT22;32138;50.966;6.968;2023-04-29T04:50:43;12.10;99.90
46440;DHT22;32138;50.966;6.968;2023-04-29T04:51:44;12.10;99.90
46440;DHT22;32138;50.966;6.968;2023-04-29T04:52:45;12.20;99.90
46440;DHT22;32138;50.966;6.968;2023-04-29T04:53:46;12.10;99.90
46440;DHT22;32138;50.966;6.968;2023-04-29T04:54:47;12.20;99.90
46440;DHT22;32138;50.966;6.968;2023-04-29T04:55:47;12.20;99.90
46440;DHT22;32138;50.966;6.968;2023-04-29T04:56:49;12.20;99.90
46440;DHT22;32138;50.966;6.968;2023-04-29T04:57:51;12.20;99.90
46440;DHT22;32138;50.966;6.968;2023-04-29T04:58:52;12.30;99.90
46440;DHT22;32138;50.966;6.968;2023-04-29T04:59:52;12.20;99.90
46440;DHT22;32138;50.966;6.968;2023-04-29T05:00:53;12.20;99.90
46440;DHT22;32138;50.966;6.968;2023-04-29T05:01:54;12.30;99.90
46440;DHT22;32138;50.966;6.968;2023-04-29T05:02:55;12.30;99.90
46440;DHT22;32138;50.966;6.968;2023-04-29T05:03:55;12.30;99.90
46440;DHT22;32138;50.966;6.968;2023-04-29T05:04:56;12.20;99.90
46440;DHT22;32138;50.966;6.968;2023-04-29T05:05:59;12.10;99.90
46440;DHT22;32138;50.966;6.968;2023-04-29T05:07:00;12.10;99.90
46440;DHT22;32138;50.966;6.968;2023-04-29T05:08:00;12.20;99.90
46440;DHT22;32138;50.966;6.968;2023-04-29T05:09:01;12.20;99.90
46440;DHT22;32138;50.966;6.968;2023-04-29T05:10:02;12.10;99.90
46440;DHT22;32138;50.966;6.968;2023-04-29T05:11:04;12.10;99.90
46440;DHT22;32138;50.966;6.968;2023-04-29T05:12:04;12.20;99.90
46440;DHT22;32138;50.966;6.968;2023-04-29T05:13:06;12.20;99.90
46440;DHT22;32138;50.966;6.968;2023-04-29T05:14:06;12.20;99.90
46440;DHT22;32138;50.966;6.968;2023-04-29T05:15:07;12.20;99.90
46440;DHT22;32138;50.966;6.968;2023-04-29T05:16:08;12.30;99.90
46440;DHT22;32138;50.966;6.968;2023-04-29T05:17:09;12.30;99.90
46440;DHT22;32138;50.966;6.968;2023-04-29T05:18:10;12.30;99.90
46440;DHT22;32138;50.966;6.968;2023-04-29T05:19:11;12.30;99.90
46440;DHT22;32138;50.966;6.968;2023-04-29T05:20:12;12.20;99.90
46440;DHT22;32138;50.966;6.968;2023-04-29T05:21:13;12.20;99.90
46440;DHT22;32138;50.966;6.968;2023-04-29T05:22:14;12.30;99.90
46440;DHT22;32138;50.966;6.968;2023-04-29T05:23:14;12.30;99.90
46440;DHT22;32138;50.966;6.968;2023-04-29T05:24:16;12.30;99.90
46440;DHT22;32138;50.966;6.968;2023-04-29T05:25:16;12.30;99.90
46440;DHT22;32138;50.966;6.968;2023-04-29T05:26:17;12.40;99.90
46440;DHT22;32138;50.966;6.968;2023-04-29T05:27:18;12.40;99.90
46440;DHT22;32138;50.966;6.968;2023-04-29T05:28:19;12.50;99.90
46440;DHT22;32138;50.966;6.968;2023-04-29T05:29:19;12.40;99.90
46440;DHT22;32138;50.966;6.968;2023-04-29T05:30:21;12.40;99.90
46440;DHT22;32138;50.966;6.968;2023-04-29T05:31:22;12.40;99.90
46440;DHT22;32138;50.966;6.968;2023-04-29T05:32:23;12.30;99.90
46440;DHT22;32138;50.966;6.968;2023-04-29T05:33:23;12.40;99.90
46440;DHT22;32138;50.966;6.968;2023-04-29T05:34:24;12.40;99.90
46440;DHT22;32138;50.966;6.968;2023-04-29T05:35:25;12.40;99.90
46440;DHT22;32138;50.966;6.968;2023-04-29T05:36:26;12.30;99.90
46440;DHT22;32138;50.966;6.968;2023-04-29T05:37:27;12.30;99.90
46440;DHT22;32138;50.966;6.968;2023-04-29T05:38:30;12.30;99.90
46440;DHT22;32138;50.966;6.968;2023-04-29T05:39:30;12.30;99.90
46440;DHT22;32138;50.966;6.968;2023-04-29T05:40:31;12.40;99.90
46440;DHT22;32138;50.966;6.968;2023-04-29T05:41:32;12.30;99.90
46440;DHT22;32138;50.966;6.968;2023-04-29T05:42:33;12.30;99.90
46440;DHT22;32138;50.966;6.968;2023-04-29T05:43:33;12.30;99.90
46440;DHT22;32138;50.966;6.968;2023-04-29T05:44:34;12.30;99.90
46440;DHT22;32138;50.966;6.968;2023-04-29T05:45:35;12.30;99.90
46440;DHT22;32138;50.966;6.968;2023-04-29T05:46:36;12.30;99.90
46440;DHT22;32138;50.966;6.968;2023-04-29T05:47:37;12.30;99.90
46440;DHT22;32138;50.966;6.968;2023-04-29T05:48:37;12.40;99.90
46440;DHT22;32138;50.966;6.968;2023-04-29T05:49:38;12.30;99.90
46440;DHT22;32138;50.966;6.968;2023-04-29T05:50:39;12.40;99.90
46440;DHT22;32138;50.966;6.968;2023-04-29T05:51:40;12.30;99.90
46440;DHT22;32138;50.966;6.968;2023-04-29T05:52:40;12.30;99.90
46440;DHT22;32138;50.966;6.968;2023-04-29T05:53:41;12.20;99.90
46440;DHT22;32138;50.966;6.968;2023-04-29T05:54:42;12.30;99.90
46440;DHT22;32138;50.966;6.968;2023-04-29T05:55:43;12.30;99.90
46440;DHT22;32138;50.966;6.968;2023-04-29T05:56:45;12.40;99.90
46440;DHT22;32138;50.966;6.968;2023-04-29T05:57:46;12.30;99.90
46440;DHT22;32138;50.966;6.968;2023-04-29T05:58:47;12.30;99.90
46440;DHT22;32138;50.966;6.968;2023-04-29T05:59:47;12.40;99.90
46440;DHT22;32138;50.966;6.968;2023-04-29T06:00:48;12.30;99.90
46440;DHT22;32138;50.966;6.968;2023-04-29T06:01:49;12.30;99.90
46440;DHT22;32138;50.966;6.968;2023-04-29T06:02:50;12.40;99.90
46440;DHT22;32138;50.966;6.968;2023-04-29T06:03:50;12.40;99.90
46440;DHT22;32138;50.966;6.968;2023-04-29T06:04:51;12.30;99.90
46440;DHT22;32138;50.966;6.968;2023-04-29T06:05:52;12.30;99.90
46440;DHT22;32138;50.966;6.968;2023-04-29T06:06:54;12.30;99.90
46440;DHT22;32138;50.966;6.968;2023-04-29T06:07:56;12.30;99.90
46440;DHT22;32138;50.966;6.968;2023-04-29T06:08:59;12.40;99.90
46440;DHT22;32138;50.966;6.968;2023-04-29T06:10:00;12.40;99.90
46440;DHT22;32138;50.966;6.968;2023-04-29T06:11:01;12.30;99.90
46440;DHT22;32138;50.966;6.968;2023-04-29T06:12:05;12.40;99.90
46440;DHT22;32138;50.966;6.968;2023-04-29T06:13:05;12.40;99.90
46440;DHT22;32138;50.966;6.968;2023-04-29T06:14:06;12.30;99.90
46440;DHT22;32138;50.966;6.968;2023-04-29T06:15:07;12.40;99.90
46440;DHT22;32138;50.966;6.968;2023-04-29T06:16:08;12.40;99.90
46440;DHT22;32138;50.966;6.968;2023-04-29T06:17:10;12.40;99.90
46440;DHT22;32138;50.966;6.968;2023-04-29T06:18:11;12.40;99.90
46440;DHT22;32138;50.966;6.968;2023-04-29T06:19:12;12.40;99.90
46440;DHT22;32138;50.966;6.968;2023-04-29T06:20:13;12.40;99.90
46440;DHT22;32138;50.966;6.968;2023-04-29T06:21:14;12.40;99.90
46440;DHT22;32138;50.966;6.968;2023-04-29T06:22:15;12.50;99.90
46440;DHT22;32138;50.966;6.968;2023-04-29T06:23:16;12.60;99.90
46440;DHT22;32138;50.966;6.968;2023-04-29T06:24:17;12.50;99.90
46440;DHT22;32138;50.966;6.968;2023-04-29T06:25:17;12.60;99.90
46440;DHT22;32138;50.966;6.968;2023-04-29T06:26:18;12.50;99.90
46440;DHT22;32138;50.966;6.968;2023-04-29T06:27:20;12.60;99.90
46440;DHT22;32138;50.966;6.968;2023-04-29T06:28:21;12.60;99.90
46440;DHT22;32138;50.966;6.968;2023-04-29T06:29:22;12.60;99.90
46440;DHT22;32138;50.966;6.968;2023-04-29T06:30:25;12.60;99.90
46440;DHT22;32138;50.966;6.968;2023-04-29T06:31:26;12.60;99.90
46440;DHT22;32138;50.966;6.968;2023-04-29T06:32:27;12.60;99.90
46440;DHT22;32138;50.966;6.968;2023-04-29T06:33:28;12.60;99.90
46440;DHT22;32138;50.966;6.968;2023-04-29T06:34:30;12.60;99.90
46440;DHT22;32138;50.966;6.968;2023-04-29T06:35:31;12.50;99.90
46440;DHT22;32138;50.966;6.968;2023-04-29T06:36:32;12.50;99.90
46440;DHT22;32138;50.966;6.968;2023-04-29T06:37:32;12.50;99.90
46440;DHT22;32138;50.966;6.968;2023-04-29T06:38:33;12.50;99.90
46440;DHT22;32138;50.966;6.968;2023-04-29T06:39:34;12.40;99.90
46440;DHT22;32138;50.966;6.968;2023-04-29T06:40:35;12.40;99.90